Time;durP1;ratioP1;P1;durP2;ratioP2;P2;SDS_P1;SDS_P2;PMS_P1;PMS_P2;Temp;Humidity;BMP_temperature;BMP_pressure;BME280_temperature;BME280_humidity;BME280_pressure;Samples;Min_cycle;Max_cycle;Signal;HPM_P1;HPM_P2
2021/09/16 00:00:17;;;;;;;5.17;4.77;;;18.30;99.90;;;;;;5037090;28;21261;-66
2021/09/16 00:02:43;;;;;;;5.17;4.67;;;18.30;99.90;;;;;;5037374;28;20603;-66
2021/09/16 00:05:10;;;;;;;6.03;5.57;;;18.30;99.90;;;;;;5037562;28;20631;-66
2021/09/16 00:07:37;;;;;;;5.47;4.97;;;18.30;99.90;;;;;;5037184;28;20607;-66
2021/09/16 00:10:06;;;;;;;5.60;5.20;;;18.30;99.90;;;;;;5037495;28;20616;-66
2021/09/16 00:12:34;;;;;;;6.43;5.83;;;18.30;99.90;;;;;;5036967;28;20623;-66
2021/09/16 00:15:00;;;;;;;6.77;6.13;;;18.30;99.90;;;;;;5037364;28;20655;-66
2021/09/16 00:17:26;;;;;;;7.33;5.80;;;18.30;99.90;;;;;;5037496;28;20620;-66
2021/09/16 00:19:53;;;;;;;7.27;6.67;;;18.20;99.90;;;;;;5037418;28;20630;-66
2021/09/16 00:22:19;;;;;;;7.03;6.33;;;18.30;99.90;;;;;;5039091;28;20615;-66
2021/09/16 00:24:45;;;;;;;8.43;7.50;;;18.20;99.90;;;;;;5039899;28;20622;-66
2021/09/16 00:27:11;;;;;;;10.93;8.10;;;18.30;99.90;;;;;;5039764;28;20600;-66
2021/09/16 00:29:38;;;;;;;9.63;6.40;;;18.20;99.90;;;;;;5039138;28;21167;-66
2021/09/16 00:32:04;;;;;;;7.83;7.13;;;18.20;99.90;;;;;;5039368;28;20600;-66
2021/09/16 00:34:30;;;;;;;10.33;7.10;;;18.30;99.90;;;;;;5038973;28;20655;-66
2021/09/16 00:36:57;;;;;;;8.03;7.30;;;18.20;99.90;;;;;;5038051;28;20631;-66
2021/09/16 00:39:23;;;;;;;6.47;6.03;;;18.30;99.90;;;;;;5039779;28;20706;-66
2021/09/16 00:41:49;;;;;;;8.87;7.97;;;18.20;99.90;;;;;;5039845;28;20646;-66
2021/09/16 00:44:16;;;;;;;8.00;7.30;;;18.20;99.90;;;;;;5039799;28;21065;-66
2021/09/16 00:46:43;;;;;;;8.47;7.47;;;18.20;99.90;;;;;;5039053;28;20619;-66
2021/09/16 00:49:09;;;;;;;8.00;7.20;;;18.20;99.90;;;;;;5038236;28;20616;-66
2021/09/16 00:51:38;;;;;;;7.47;6.63;;;18.30;99.90;;;;;;5038396;28;20942;-66
2021/09/16 00:54:08;;;;;;;9.10;8.20;;;18.20;99.90;;;;;;5037440;28;20600;-66
2021/09/16 00:56:37;;;;;;;8.50;7.70;;;18.30;99.90;;;;;;5036824;28;21138;-67
2021/09/16 00:59:05;;;;;;;8.43;7.53;;;18.30;99.90;;;;;;5037660;28;20951;-67
2021/09/16 01:01:31;;;;;;;8.87;7.70;;;18.20;99.90;;;;;;5035732;28;21135;-65
2021/09/16 01:03:58;;;;;;;9.20;8.40;;;18.30;99.90;;;;;;5034385;28;20608;-65
2021/09/16 01:06:25;;;;;;;9.50;8.03;;;18.30;99.90;;;;;;5032863;28;20639;-65
2021/09/16 01:08:52;;;;;;;10.87;8.40;;;18.30;99.90;;;;;;5034030;28;20604;-65
2021/09/16 01:11:22;;;;;;;10.00;7.53;;;18.30;99.90;;;;;;5033918;28;20568;-65
2021/09/16 01:13:48;;;;;;;9.77;8.30;;;18.20;99.90;;;;;;5034030;28;20930;-65
2021/09/16 01:16:14;;;;;;;9.33;8.53;;;18.20;99.90;;;;;;5034118;28;20651;-65
2021/09/16 01:18:42;;;;;;;8.53;7.80;;;18.20;99.90;;;;;;5033904;28;21061;-65
2021/09/16 01:21:09;;;;;;;10.67;8.17;;;18.20;99.90;;;;;;5033750;28;20630;-65
2021/09/16 01:23:35;;;;;;;9.47;8.47;;;18.20;99.90;;;;;;5033741;28;20596;-65
2021/09/16 01:26:01;;;;;;;10.43;8.03;;;18.20;99.90;;;;;;5033694;28;20604;-65
2021/09/16 01:28:28;;;;;;;11.00;8.30;;;18.30;99.90;;;;;;5034013;28;20649;-64
2021/09/16 01:30:54;;;;;;;8.00;7.30;;;18.30;99.90;;;;;;5033846;28;20605;-65
2021/09/16 01:33:20;;;;;;;11.03;8.37;;;18.30;99.90;;;;;;5033616;28;20599;-65
2021/09/16 01:35:47;;;;;;;11.43;8.30;;;18.20;99.90;;;;;;5033727;28;21166;-65
2021/09/16 01:38:13;;;;;;;9.20;8.37;;;18.20;99.90;;;;;;5032953;28;21146;-65
2021/09/16 01:40:39;;;;;;;9.80;8.20;;;18.30;99.90;;;;;;5033529;28;20715;-66
2021/09/16 01:43:06;;;;;;;9.60;8.80;;;18.30;99.90;;;;;;5033605;28;20643;-65
2021/09/16 01:45:32;;;;;;;11.30;8.80;;;18.30;99.90;;;;;;5033734;28;20616;-64
2021/09/16 01:47:58;;;;;;;10.70;8.37;;;18.20;99.90;;;;;;5033895;28;20662;-65
2021/09/16 01:50:26;;;;;;;12.20;8.80;;;18.20;99.90;;;;;;5033701;28;20612;-65
2021/09/16 01:52:52;;;;;;;9.43;8.43;;;18.30;99.90;;;;;;5033711;28;20627;-65
2021/09/16 01:55:20;;;;;;;9.30;8.30;;;18.30;99.90;;;;;;5033270;28;20646;-65
2021/09/16 01:57:46;;;;;;;9.93;9.13;;;18.30;99.90;;;;;;5033838;28;20616;-65
2021/09/16 02:00:13;;;;;;;11.50;10.33;;;18.30;99.90;;;;;;5033393;28;20612;-65
2021/09/16 02:02:43;;;;;;;11.03;9.27;;;18.30;99.90;;;;;;5033182;28;20711;-65
2021/09/16 02:05:10;;;;;;;11.23;8.60;;;18.30;99.90;;;;;;5033393;28;20619;-65
2021/09/16 02:07:36;;;;;;;9.40;8.60;;;18.30;99.90;;;;;;5033391;28;20623;-65
2021/09/16 02:10:05;;;;;;;9.20;8.27;;;18.40;99.90;;;;;;5033162;28;21131;-65
2021/09/16 02:12:32;;;;;;;12.67;9.33;;;18.40;99.90;;;;;;5033185;28;20607;-65
2021/09/16 02:14:58;;;;;;;9.93;8.90;;;18.40;99.90;;;;;;5033136;28;20643;-65
2021/09/16 02:17:24;;;;;;;15.03;10.03;;;18.50;99.90;;;;;;5033622;28;20615;-65
2021/09/16 02:19:50;;;;;;;22.23;16.97;;;18.50;99.90;;;;;;5033025;28;21026;-65
2021/09/16 02:22:17;;;;;;;19.27;16.80;;;18.40;99.90;;;;;;5033442;28;21131;-65
2021/09/16 02:24:43;;;;;;;24.50;21.73;;;18.40;99.90;;;;;;5032932;28;20600;-65
2021/09/16 02:27:12;;;;;;;26.90;22.57;;;18.30;99.90;;;;;;5032908;28;20653;-65
2021/09/16 02:29:39;;;;;;;28.30;24.60;;;18.20;99.90;;;;;;5033041;28;20669;-65
2021/09/16 02:32:06;;;;;;;28.40;24.57;;;18.10;99.90;;;;;;5033045;28;20603;-65
2021/09/16 02:34:34;;;;;;;33.13;25.70;;;18.10;99.90;;;;;;5032014;28;20626;-65
2021/09/16 02:37:01;;;;;;;36.40;27.70;;;18.10;99.90;;;;;;5033434;28;21169;-65
2021/09/16 02:39:27;;;;;;;30.23;25.70;;;18.10;99.90;;;;;;5032993;28;20608;-65
2021/09/16 02:41:53;;;;;;;31.50;26.97;;;18.10;99.90;;;;;;5032819;28;20640;-65
2021/09/16 02:44:19;;;;;;;35.80;28.70;;;18.10;99.90;;;;;;5032937;28;20592;-65
2021/09/16 02:46:46;;;;;;;37.37;27.43;;;18.00;99.90;;;;;;5032671;28;20619;-65
2021/09/16 02:49:12;;;;;;;36.87;28.10;;;18.00;99.90;;;;;;5033105;28;20996;-65
2021/09/16 02:51:38;;;;;;;37.27;29.10;;;18.00;99.90;;;;;;5037192;28;20616;-65
2021/09/16 02:54:04;;;;;;;36.07;30.10;;;18.00;99.90;;;;;;5036713;28;20606;-65
2021/09/16 02:56:31;;;;;;;33.57;29.60;;;18.00;99.90;;;;;;5035779;28;20991;-65
2021/09/16 02:58:57;;;;;;;37.17;28.40;;;18.00;99.90;;;;;;5036462;28;20623;-65
2021/09/16 03:01:23;;;;;;;33.50;29.43;;;17.90;99.90;;;;;;5036333;28;20967;-66
2021/09/16 03:03:50;;;;;;;37.17;27.17;;;18.00;99.90;;;;;;5052582;28;20623;-65
2021/09/16 03:06:16;;;;;;;33.63;27.77;;;17.90;99.90;;;;;;5055988;28;20619;-65
2021/09/16 03:08:42;;;;;;;33.73;29.87;;;18.00;99.90;;;;;;5055711;28;20615;-65
2021/09/16 03:11:17;;;;;;;34.40;27.20;;;18.00;99.90;;;;;;5056013;28;20594;-66
2021/09/16 03:13:44;;;;;;;30.30;27.03;;;17.90;99.90;;;;;;5054571;28;20615;-65
2021/09/16 03:16:10;;;;;;;30.93;27.13;;;17.90;99.90;;;;;;5056046;28;20662;-65
2021/09/16 03:18:36;;;;;;;30.57;25.03;;;17.80;99.90;;;;;;5056168;28;20660;-65
2021/09/16 03:21:03;;;;;;;28.23;25.00;;;17.80;99.90;;;;;;5054684;28;20627;-65
2021/09/16 03:23:29;;;;;;;31.77;25.10;;;17.80;99.90;;;;;;5056223;28;20956;-65
2021/09/16 03:25:56;;;;;;;27.17;24.27;;;17.80;99.90;;;;;;5056078;28;20633;-65
2021/09/16 03:28:25;;;;;;;32.77;24.93;;;17.80;99.90;;;;;;5055811;28;21243;-65
2021/09/16 03:30:51;;;;;;;31.47;26.33;;;17.60;99.90;;;;;;5054421;28;20960;-65
2021/09/16 03:33:18;;;;;;;31.10;26.67;;;17.50;99.90;;;;;;5055982;28;21096;-65
2021/09/16 03:35:44;;;;;;;35.60;29.47;;;17.40;99.90;;;;;;5055880;28;20658;-65
2021/09/16 03:38:10;;;;;;;41.30;29.63;;;17.40;99.90;;;;;;5055679;28;20986;-65
2021/09/16 03:40:37;;;;;;;32.83;29.37;;;17.40;99.90;;;;;;5055687;28;20594;-65
2021/09/16 03:43:03;;;;;;;34.73;28.23;;;17.40;99.90;;;;;;5055493;28;21019;-65
2021/09/16 03:45:29;;;;;;;32.10;28.03;;;17.40;99.90;;;;;;5055447;28;20633;-65
2021/09/16 03:47:55;;;;;;;29.67;26.63;;;17.40;99.90;;;;;;5055434;28;21247;-65
2021/09/16 03:50:22;;;;;;;35.97;27.23;;;17.40;99.90;;;;;;5055498;28;20602;-65
2021/09/16 03:52:48;;;;;;;29.80;25.73;;;17.40;99.90;;;;;;5055620;28;20614;-65
2021/09/16 03:55:16;;;;;;;29.97;24.73;;;17.40;99.90;;;;;;5054059;28;20646;-65
2021/09/16 03:57:42;;;;;;;32.10;26.00;;;17.40;99.90;;;;;;5055734;28;20979;-66
2021/09/16 04:00:09;;;;;;;29.33;25.67;;;17.40;99.90;;;;;;5054804;28;20641;-65
2021/09/16 04:02:36;;;;;;;29.83;26.50;;;17.40;99.90;;;;;;5055080;28;20607;-65
2021/09/16 04:05:03;;;;;;;32.57;25.83;;;17.50;99.90;;;;;;5055504;28;20776;-65
2021/09/16 04:07:29;;;;;;;27.70;24.70;;;17.50;99.90;;;;;;5055370;28;20620;-65
2021/09/16 04:09:55;;;;;;;30.20;25.50;;;17.40;99.90;;;;;;5055828;28;20599;-65
2021/09/16 04:12:22;;;;;;;32.00;26.10;;;17.30;99.90;;;;;;5055656;28;20610;-65
2021/09/16 04:14:48;;;;;;;30.50;27.00;;;17.30;99.90;;;;;;5055578;28;20621;-65
2021/09/16 04:17:15;;;;;;;32.70;26.83;;;17.30;99.90;;;;;;5053725;28;20662;-65
2021/09/16 04:19:41;;;;;;;30.80;25.77;;;17.30;99.90;;;;;;5055410;28;20595;-65
2021/09/16 04:22:07;;;;;;;33.87;27.23;;;17.30;99.90;;;;;;5055453;28;20599;-65
2021/09/16 04:24:34;;;;;;;33.70;25.97;;;17.30;99.90;;;;;;5055709;28;21146;-65
2021/09/16 04:27:00;;;;;;;29.23;25.60;;;17.30;99.90;;;;;;5055183;28;20602;-65
2021/09/16 04:29:28;;;;;;;31.30;25.43;;;17.30;99.90;;;;;;5053737;28;21202;-65
2021/09/16 04:31:56;;;;;;;29.80;26.23;;;17.20;99.90;;;;;;5055300;28;20619;-65
2021/09/16 04:34:23;;;;;;;31.43;25.77;;;17.20;99.90;;;;;;5054943;28;20711;-65
2021/09/16 04:36:49;;;;;;;33.60;27.07;;;17.20;99.90;;;;;;5054805;28;21018;-65
2021/09/16 04:39:16;;;;;;;32.80;27.40;;;17.30;99.90;;;;;;5054731;28;21138;-65
2021/09/16 04:41:45;;;;;;;27.80;24.83;;;17.20;99.90;;;;;;5054407;28;20684;-65
2021/09/16 04:44:11;;;;;;;30.10;25.83;;;17.30;99.90;;;;;;5055193;28;20581;-65
2021/09/16 04:46:38;;;;;;;32.53;28.00;;;17.20;99.90;;;;;;5055140;28;20635;-65
2021/09/16 04:49:04;;;;;;;32.60;26.77;;;17.20;99.90;;;;;;5055241;28;20626;-65
2021/09/16 04:51:31;;;;;;;33.23;26.60;;;17.20;99.90;;;;;;5054295;28;20595;-65
2021/09/16 04:53:57;;;;;;;29.50;26.40;;;17.20;99.90;;;;;;5054466;28;20603;-65
2021/09/16 04:56:24;;;;;;;28.73;24.97;;;17.20;99.90;;;;;;5054938;28;20646;-65
2021/09/16 04:58:50;;;;;;;28.27;25.00;;;17.20;99.90;;;;;;5054550;28;20599;-65
2021/09/16 05:01:17;;;;;;;30.33;25.57;;;17.20;99.90;;;;;;5054470;28;20632;-65
2021/09/16 05:03:43;;;;;;;30.80;26.00;;;17.20;99.90;;;;;;5054323;28;21021;-70
2021/09/16 05:06:09;;;;;;;26.20;23.60;;;17.20;99.90;;;;;;5054223;28;21169;-65
2021/09/16 05:08:36;;;;;;;28.43;24.57;;;17.20;99.90;;;;;;5054439;28;21130;-65
2021/09/16 05:11:02;;;;;;;32.73;26.50;;;17.20;99.90;;;;;;5054028;28;20623;-65
2021/09/16 05:13:28;;;;;;;34.23;25.57;;;17.20;99.90;;;;;;5053204;28;20986;-67
2021/09/16 05:15:55;;;;;;;31.33;26.57;;;17.20;99.90;;;;;;5054049;28;20642;-65
2021/09/16 05:18:21;;;;;;;31.63;25.83;;;17.20;99.90;;;;;;5054263;28;21157;-65
2021/09/16 05:20:50;;;;;;;32.10;25.67;;;17.20;99.90;;;;;;5054206;28;20615;-65
2021/09/16 05:23:17;;;;;;;29.20;24.77;;;17.20;99.90;;;;;;5054326;28;20618;-65
2021/09/16 05:25:43;;;;;;;28.33;22.77;;;17.20;99.90;;;;;;5054031;28;21169;-65
2021/09/16 05:28:12;;;;;;;28.07;23.40;;;17.20;99.90;;;;;;5053736;28;21156;-65
2021/09/16 05:30:38;;;;;;;27.57;23.40;;;17.20;99.90;;;;;;5053756;28;20602;-68
2021/09/16 05:33:09;;;;;;;24.97;22.37;;;17.10;99.90;;;;;;5053837;28;21072;-65
2021/09/16 05:35:36;;;;;;;26.13;22.40;;;17.00;99.90;;;;;;5054475;28;20655;-79
2021/09/16 05:38:03;;;;;;;26.87;23.47;;;17.00;99.90;;;;;;5057655;28;20713;-80
2021/09/16 05:40:30;;;;;;;28.50;22.73;;;17.00;99.90;;;;;;5058426;28;20984;-79
2021/09/16 05:42:57;;;;;;;30.60;23.60;;;17.00;99.90;;;;;;5056766;28;20733;-80
2021/09/16 05:45:24;;;;;;;26.20;21.63;;;17.00;99.90;;;;;;5059374;28;20629;-79
2021/09/16 05:47:50;;;;;;;25.60;22.23;;;17.00;99.90;;;;;;5058331;28;20734;-79
2021/09/16 05:50:16;;;;;;;38.37;22.20;;;17.00;99.90;;;;;;5057255;28;20629;-79
2021/09/16 05:52:43;;;;;;;29.80;22.67;;;17.00;99.90;;;;;;5058706;28;20623;-80
2021/09/16 05:55:10;;;;;;;27.70;23.73;;;17.00;99.90;;;;;;5056879;28;20650;-79
2021/09/16 05:57:37;;;;;;;29.87;24.30;;;17.00;99.90;;;;;;5057347;28;20630;-78
2021/09/16 06:00:08;;;;;;;28.10;22.67;;;17.00;99.90;;;;;;5057194;28;20650;-78
2021/09/16 06:02:35;;;;;;;23.20;20.70;;;16.90;99.90;;;;;;5057521;28;20601;-78
2021/09/16 06:05:01;;;;;;;33.67;22.07;;;16.90;99.90;;;;;;5058170;28;20587;-80
2021/09/16 06:07:30;;;;;;;25.53;19.43;;;16.90;99.90;;;;;;5056270;28;20603;-79
2021/09/16 06:09:57;;;;;;;25.57;22.00;;;16.90;99.90;;;;;;5056994;28;20599;-78
2021/09/16 06:12:26;;;;;;;24.60;20.27;;;16.90;99.90;;;;;;5058464;28;20592;-79
2021/09/16 06:14:53;;;;;;;30.20;22.47;;;16.90;99.90;;;;;;5057944;28;20621;-80
2021/09/16 06:17:22;;;;;;;26.17;20.23;;;17.00;99.90;;;;;;5058221;28;21025;-79
2021/09/16 06:19:48;;;;;;;24.97;21.23;;;17.00;99.90;;;;;;5058958;28;20682;-80
2021/09/16 06:22:15;;;;;;;24.87;18.90;;;17.00;99.90;;;;;;5058469;28;20590;-80
2021/09/16 06:24:41;;;;;;;21.70;19.37;;;17.00;99.90;;;;;;5057580;28;21157;-79
2021/09/16 06:27:10;;;;;;;22.23;19.97;;;17.00;99.90;;;;;;5060749;28;20619;-79
2021/09/16 06:29:37;;;;;;;20.20;18.20;;;17.00;99.90;;;;;;5059696;28;20645;-79
2021/09/16 06:32:06;;;;;;;20.63;18.50;;;17.00;99.90;;;;;;5061462;28;20637;-79
2021/09/16 06:34:33;;;;;;;21.90;19.07;;;17.00;99.90;;;;;;5059216;28;20635;-79
2021/09/16 06:37:00;;;;;;;45.60;20.70;;;16.90;99.90;;;;;;5060256;28;20625;-75
2021/09/16 06:39:26;;;;;;;28.50;23.40;;;17.00;99.90;;;;;;5057654;28;20669;-75
2021/09/16 06:41:52;;;;;;;23.00;20.63;;;17.10;99.90;;;;;;5058205;28;20643;-75
2021/09/16 06:44:20;;;;;;;24.70;21.20;;;17.00;99.90;;;;;;5059118;28;20591;-75
2021/09/16 06:46:46;;;;;;;24.23;19.73;;;17.10;99.90;;;;;;5058541;28;20634;-75
2021/09/16 06:49:13;;;;;;;21.10;18.83;;;17.00;99.90;;;;;;5058320;28;21181;-76
2021/09/16 06:51:39;;;;;;;26.20;22.17;;;17.00;99.90;;;;;;5057229;28;20638;-64
2021/09/16 06:54:06;;;;;;;25.90;18.90;;;17.00;99.90;;;;;;5064330;28;20610;-65
2021/09/16 06:56:32;;;;;;;24.93;21.00;;;17.00;99.90;;;;;;5076981;28;21211;-65
2021/09/16 06:58:58;;;;;;;22.93;20.37;;;17.00;99.90;;;;;;5070507;28;20982;-65
2021/09/16 07:01:24;;;;;;;25.23;20.97;;;17.00;99.90;;;;;;5068663;28;20688;-65
2021/09/16 07:03:52;;;;;;;27.37;23.30;;;17.00;99.90;;;;;;5076227;28;20613;-65
2021/09/16 07:06:19;;;;;;;23.90;20.37;;;17.10;99.90;;;;;;5076398;28;20630;-65
2021/09/16 07:08:49;;;;;;;29.20;21.63;;;17.10;99.90;;;;;;5061944;28;21310;-64
2021/09/16 07:11:19;;;;;;;29.17;22.90;;;17.20;99.90;;;;;;5060062;28;21126;-65
2021/09/16 07:13:45;;;;;;;28.00;20.63;;;17.30;99.90;;;;;;5056279;28;20626;-65
2021/09/16 07:16:12;;;;;;;24.83;19.70;;;17.40;99.90;;;;;;5054484;28;20662;-65
2021/09/16 07:18:38;;;;;;;23.57;19.53;;;17.40;99.90;;;;;;5056053;28;20627;-66
2021/09/16 07:21:04;;;;;;;28.10;23.47;;;17.40;99.90;;;;;;5056192;28;21164;-65
2021/09/16 07:23:31;;;;;;;21.77;19.47;;;17.50;99.90;;;;;;5055980;28;20645;-65
2021/09/16 07:25:57;;;;;;;30.23;20.47;;;17.50;99.90;;;;;;5056017;28;20626;-66
2021/09/16 07:28:23;;;;;;;24.50;21.97;;;17.50;99.90;;;;;;5055820;28;20618;-65
2021/09/16 07:30:50;;;;;;;27.10;18.83;;;17.60;99.90;;;;;;5056180;28;20634;-66
2021/09/16 07:33:16;;;;;;;22.33;19.90;;;17.60;99.90;;;;;;5055889;28;20626;-66
2021/09/16 07:35:42;;;;;;;20.33;18.07;;;17.60;99.90;;;;;;5054973;28;20630;-65
2021/09/16 07:38:09;;;;;;;26.00;19.20;;;17.60;99.90;;;;;;5055605;28;20977;-65
2021/09/16 07:40:35;;;;;;;22.13;18.23;;;17.70;99.90;;;;;;5055800;28;21137;-66
2021/09/16 07:43:03;;;;;;;19.33;16.80;;;17.70;99.90;;;;;;5055270;28;20757;-65
2021/09/16 07:45:29;;;;;;;20.23;15.67;;;17.80;99.90;;;;;;5055270;28;20626;-65
2021/09/16 07:47:56;;;;;;;17.53;15.37;;;17.80;99.90;;;;;;5055112;28;20652;-65
2021/09/16 07:50:22;;;;;;;18.87;16.73;;;17.90;99.90;;;;;;5054933;28;20639;-66
2021/09/16 07:52:48;;;;;;;19.50;16.80;;;18.10;99.90;;;;;;5055270;28;21007;-66
2021/09/16 07:55:15;;;;;;;17.50;15.80;;;18.30;99.90;;;;;;5055155;28;20672;-66
2021/09/16 07:57:41;;;;;;;17.70;15.97;;;18.50;99.90;;;;;;5055011;28;20661;-65
2021/09/16 08:00:08;;;;;;;17.20;15.40;;;18.60;99.90;;;;;;5055107;28;20671;-66
2021/09/16 08:02:43;;;;;;;15.00;13.60;;;18.60;99.90;;;;;;5055886;28;21195;-66
2021/09/16 08:05:10;;;;;;;15.77;13.67;;;18.40;99.90;;;;;;5055719;28;20578;-65
2021/09/16 08:07:36;;;;;;;19.03;13.40;;;18.30;99.90;;;;;;5055414;28;21153;-66
2021/09/16 08:10:03;;;;;;;18.60;13.83;;;18.30;99.90;;;;;;5055223;28;20610;-66
2021/09/16 08:12:31;;;;;;;17.53;13.57;;;18.30;99.90;;;;;;5054089;28;20634;-66
2021/09/16 08:14:57;;;;;;;15.00;13.50;;;18.30;99.90;;;;;;5054744;28;20986;-66
2021/09/16 08:17:26;;;;;;;12.13;10.70;;;18.30;99.90;;;;;;5055290;28;20645;-66
2021/09/16 08:19:52;;;;;;;12.47;10.23;;;18.30;99.90;;;;;;5055086;28;21150;-66
2021/09/16 08:22:19;;;;;;;10.37;9.23;;;18.10;99.90;;;;;;5054920;28;20621;-65
2021/09/16 08:24:45;;;;;;;13.60;9.70;;;18.20;99.90;;;;;;5055653;28;20654;-64
2021/09/16 08:27:12;;;;;;;10.53;9.13;;;18.10;99.90;;;;;;5054768;28;20599;-65
2021/09/16 08:29:38;;;;;;;16.50;11.03;;;17.90;99.90;;;;;;5059304;28;20625;-65
2021/09/16 08:32:05;;;;;;;11.10;10.10;;;18.00;99.90;;;;;;5074749;28;20631;-65
2021/09/16 08:34:31;;;;;;;12.13;10.50;;;18.00;99.90;;;;;;5074221;28;20622;-65
2021/09/16 08:36:57;;;;;;;13.43;11.10;;;18.00;99.90;;;;;;5065032;28;20677;-65
2021/09/16 08:39:24;;;;;;;12.70;10.60;;;18.00;99.90;;;;;;5069922;28;20629;-65
2021/09/16 08:41:51;;;;;;;11.93;10.73;;;18.00;99.90;;;;;;5064632;28;20650;-65
2021/09/16 08:44:17;;;;;;;12.70;10.60;;;18.00;99.90;;;;;;5054034;28;20627;-65
2021/09/16 08:46:44;;;;;;;13.67;12.17;;;18.00;99.90;;;;;;5053437;28;20635;-65
2021/09/16 08:49:10;;;;;;;13.40;10.60;;;18.00;99.90;;;;;;5054627;28;20714;-65
2021/09/16 08:51:40;;;;;;;12.63;10.83;;;18.00;99.90;;;;;;5054708;28;20607;-65
2021/09/16 08:54:11;;;;;;;12.43;11.23;;;18.00;99.90;;;;;;5054666;28;20668;-65
2021/09/16 08:56:41;;;;;;;12.77;11.00;;;18.00;99.90;;;;;;5053205;28;20653;-65
2021/09/16 08:59:08;;;;;;;10.97;9.70;;;18.10;99.90;;;;;;5054966;28;20602;-65
2021/09/16 09:01:35;;;;;;;10.13;9.10;;;18.10;99.90;;;;;;5054513;28;20611;-65
2021/09/16 09:04:02;;;;;;;13.60;11.17;;;18.00;99.90;;;;;;5054230;28;20595;-65
2021/09/16 09:06:38;;;;;;;10.30;9.27;;;18.00;99.90;;;;;;5054287;28;20630;-65
2021/09/16 09:09:06;;;;;;;9.80;8.80;;;18.00;99.90;;;;;;5054287;28;20563;-65
2021/09/16 09:11:47;;;;;;;10.30;9.40;;;18.20;99.90;;;;;;5054142;28;20619;-66
2021/09/16 09:14:18;;;;;;;12.73;9.07;;;18.20;99.90;;;;;;5053629;28;20582;-65
2021/09/16 09:16:44;;;;;;;10.90;9.30;;;18.30;99.90;;;;;;5068413;28;21184;-65
2021/09/16 09:19:16;;;;;;;15.30;10.17;;;18.30;99.90;;;;;;5073462;28;20626;-65
2021/09/16 09:21:43;;;;;;;11.33;10.13;;;18.30;99.90;;;;;;5072654;28;20618;-65
2021/09/16 09:24:10;;;;;;;12.07;10.87;;;18.40;99.90;;;;;;5073345;28;20984;-65
2021/09/16 09:26:39;;;;;;;12.70;10.90;;;18.40;99.90;;;;;;5072531;28;20650;-65
2021/09/16 09:29:08;;;;;;;14.87;11.03;;;18.30;99.90;;;;;;5073951;28;21132;-65
2021/09/16 09:31:58;;;;;;;13.53;10.73;;;18.30;99.90;;;;;;5073640;28;20655;-65
2021/09/16 09:34:33;;;;;;;10.90;9.77;;;18.20;99.90;;;;;;5073547;28;20617;-65
2021/09/16 09:37:08;;;;;;;14.43;9.87;;;18.20;99.90;;;;;;5073350;28;21191;-65
2021/09/16 09:39:35;;;;;;;13.83;9.60;;;18.30;99.90;;;;;;5046338;28;20998;-65
2021/09/16 09:42:13;;;;;;;9.27;8.37;;;18.40;99.90;;;;;;5073438;28;20654;-65
2021/09/16 09:44:40;;;;;;;8.60;7.70;;;18.50;99.90;;;;;;5046171;28;20598;-64
2021/09/16 09:47:06;;;;;;;9.73;7.70;;;18.70;99.90;;;;;;5060785;28;20998;-65
2021/09/16 09:49:38;;;;;;;8.13;7.27;;;18.90;99.90;;;;;;5052651;28;20635;-65
2021/09/16 09:52:05;;;;;;;8.47;7.40;;;18.80;99.90;;;;;;5053785;28;20595;-65
2021/09/16 09:54:41;;;;;;;8.00;7.20;;;19.00;99.90;;;;;;5053883;28;21206;-65
2021/09/16 09:57:18;;;;;;;13.60;8.70;;;19.00;99.90;;;;;;5054126;28;20662;-65
2021/09/16 10:00:09;;;;;;;10.93;8.20;;;18.80;99.90;;;;;;5053135;28;21036;-64
2021/09/16 10:02:53;;;;;;;13.67;8.43;;;18.80;99.90;;;;;;5053351;28;20639;-64
2021/09/16 10:05:36;;;;;;;10.53;9.17;;;18.70;99.90;;;;;;5053552;28;20559;-64
2021/09/16 10:08:08;;;;;;;10.07;8.70;;;18.70;99.90;;;;;;5053738;28;20688;-64
2021/09/16 10:10:41;;;;;;;10.23;9.20;;;18.80;99.90;;;;;;5052350;28;20623;-65
2021/09/16 10:13:09;;;;;;;9.00;8.20;;;18.70;99.90;;;;;;5053818;28;20591;-65
2021/09/16 10:15:36;;;;;;;8.87;7.67;;;18.70;99.90;;;;;;5053945;28;20623;-65
2021/09/16 10:18:03;;;;;;;9.70;8.37;;;18.70;99.90;;;;;;5053512;28;21009;-64
2021/09/16 10:20:30;;;;;;;8.80;7.90;;;18.70;99.90;;;;;;5053262;28;20624;-65
2021/09/16 10:22:59;;;;;;;13.20;8.80;;;18.70;99.90;;;;;;5053181;28;20598;-65
2021/09/16 10:25:27;;;;;;;9.67;8.70;;;18.90;99.90;;;;;;5053369;28;20602;-65
2021/09/16 10:28:20;;;;;;;13.50;8.80;;;19.00;99.90;;;;;;5053198;28;20961;-65
2021/09/16 10:30:49;;;;;;;9.47;8.63;;;19.20;99.90;;;;;;5052059;28;20643;-64
2021/09/16 10:33:27;;;;;;;9.83;8.87;;;19.20;99.90;;;;;;5053483;28;20611;-65
2021/09/16 10:35:59;;;;;;;11.83;10.07;;;19.10;99.90;;;;;;5053946;28;21141;-65
2021/09/16 10:38:28;;;;;;;9.60;8.60;;;19.20;99.90;;;;;;5053298;28;20655;-65
2021/09/16 10:41:15;;;;;;;11.33;9.53;;;19.20;99.90;;;;;;5053012;28;20612;-65
2021/09/16 10:43:44;;;;;;;12.93;10.40;;;19.30;99.90;;;;;;5053948;28;20614;-65
2021/09/16 10:46:36;;;;;;;11.80;8.93;;;19.50;99.90;;;;;;5053431;28;20626;-65
2021/09/16 10:49:22;;;;;;;11.20;9.75;;;19.60;99.90;;;;;;5052406;28;20756;-65
2021/09/16 10:52:00;;;;;;;12.23;10.20;;;19.60;99.90;;;;;;5048395;28;20211;-65
2021/09/16 10:54:34;;;;;;;11.30;10.17;;;19.80;99.90;;;;;;5053304;28;20641;-66
2021/09/16 10:57:01;;;;;;;11.90;10.80;;;19.90;99.90;;;;;;5053114;28;20630;-66
2021/09/16 10:59:49;;;;;;;11.13;10.00;;;19.80;99.90;;;;;;5053770;28;20611;-66
2021/09/16 11:02:22;;;;;;;12.30;10.90;;;19.90;99.90;;;;;;5053693;28;20702;-66
2021/09/16 11:04:54;;;;;;;12.17;9.83;;;20.00;99.90;;;;;;5053187;28;20563;-65
2021/09/16 11:07:37;;;;;;;15.40;10.60;;;20.00;99.90;;;;;;5053019;28;20610;-66
2021/09/16 11:10:16;;;;;;;10.87;9.33;;;19.90;99.90;;;;;;5053290;28;20649;-66
2021/09/16 11:12:42;;;;;;;10.90;9.80;;;20.10;99.90;;;;;;5055644;28;20615;-66
2021/09/16 11:15:10;;;;;;;10.70;9.60;;;20.20;99.90;;;;;;5056634;28;20633;-66
2021/09/16 11:17:38;;;;;;;11.67;10.57;;;20.30;99.90;;;;;;5056791;28;20662;-66
2021/09/16 11:20:07;;;;;;;11.37;9.90;;;20.30;99.90;;;;;;5056840;28;20605;-66
2021/09/16 11:22:33;;;;;;;10.13;9.27;;;20.30;99.90;;;;;;5056661;28;20995;-66
2021/09/16 11:25:00;;;;;;;12.10;9.00;;;20.30;99.90;;;;;;5055491;28;21156;-66
2021/09/16 11:27:31;;;;;;;10.90;8.87;;;20.40;99.90;;;;;;5056477;28;20631;-66
2021/09/16 11:29:59;;;;;;;10.77;9.67;;;21.00;99.90;;;;;;5056350;28;20595;-66
2021/09/16 11:32:38;;;;;;;11.83;8.70;;;21.40;99.90;;;;;;5056033;28;20575;-66
2021/09/16 11:35:14;;;;;;;9.10;8.20;;;21.70;92.60;;;;;;5056726;28;20696;-66
2021/09/16 11:37:51;;;;;;;8.50;7.30;;;22.70;1.80;;;;;;5056739;28;20647;-66
2021/09/16 11:40:22;;;;;;;9.80;7.90;;;23.00;1.00;;;;;;5056456;28;20618;-65
2021/09/16 11:42:51;;;;;;;9.50;7.70;;;23.40;1.00;;;;;;5056444;28;20659;-65
2021/09/16 11:45:20;;;;;;;9.40;8.00;;;23.20;1.00;;;;;;5056216;28;20590;-66
2021/09/16 11:48:07;;;;;;;12.83;9.63;;;22.90;1.00;;;;;;5056060;28;21065;-65
2021/09/16 11:50:38;;;;;;;10.57;8.70;;;21.50;3.60;;;;;;5056469;28;20629;-65
2021/09/16 11:53:11;;;;;;;8.80;8.00;;;21.10;81.00;;;;;;5056404;28;20965;-65
2021/09/16 11:55:40;;;;;;;8.23;7.50;;;21.40;88.20;;;;;;5055966;28;20568;-65
2021/09/16 11:58:10;;;;;;;8.80;8.00;;;21.70;59.40;;;;;;5055614;28;20658;-65
2021/09/16 12:01:02;;;;;;;8.97;7.67;;;22.20;1.00;;;;;;5056011;28;20973;-66
2021/09/16 12:03:31;;;;;;;9.73;7.80;;;22.70;1.00;;;;;;5052778;28;20642;-65
2021/09/16 12:06:00;;;;;;;8.33;7.23;;;22.50;1.00;;;;;;5055531;28;20618;-66
2021/09/16 12:08:32;;;;;;;7.17;6.67;;;22.40;1.00;;;;;;5055580;28;20638;-66
2021/09/16 12:11:07;;;;;;;7.63;6.50;;;22.40;1.00;;;;;;5055361;28;20974;-66
2021/09/16 12:13:42;;;;;;;8.53;6.47;;;22.20;1.00;;;;;;5055385;28;20626;-66
2021/09/16 12:16:13;;;;;;;7.00;6.33;;;21.90;1.00;;;;;;5055501;28;20626;-66
2021/09/16 12:18:45;;;;;;;7.40;6.07;;;21.50;51.90;;;;;;5055498;28;20651;-65
2021/09/16 12:21:18;;;;;;;7.13;6.47;;;21.40;19.70;;;;;;5055406;28;21097;-65
2021/09/16 12:23:50;;;;;;;7.80;6.03;;;21.30;51.90;;;;;;5054961;28;20591;-65
2021/09/16 12:26:24;;;;;;;6.77;6.10;;;21.20;58.80;;;;;;5055866;28;20624;-66
2021/09/16 12:28:54;;;;;;;6.10;5.57;;;21.20;54.60;;;;;;5055581;28;20595;-65
2021/09/16 12:31:25;;;;;;;5.20;4.80;;;21.20;64.10;;;;;;5055619;28;20630;-66
2021/09/16 12:34:18;;;;;;;6.23;5.73;;;20.90;63.90;;;;;;5055375;28;20627;-66
2021/09/16 12:36:51;;;;;;;9.23;6.27;;;21.10;98.30;;;;;;5053763;28;20631;-66
2021/09/16 12:39:18;;;;;;;5.90;5.53;;;21.20;99.90;;;;;;5055761;28;20627;-66